Time;durP1;ratioP1;P1;durP2;ratioP2;P2;SDS_P1;SDS_P2;PMS_P1;PMS_P2;Temp;Humidity;BMP_temperature;BMP_pressure;BME280_temperature;BME280_humidity;BME280_pressure;Samples;Min_cycle;Max_cycle;Signal;HPM_P1;HPM_P2
2023/07/08 00:00:50;;;;;;;0.35;0.08;;;20.20;85.20;;;;;;5072311;28;20024;-73
2023/07/08 00:03:17;;;;;;;3.92;0.30;;;20.10;85.50;;;;;;5072102;28;20032;-73
2023/07/08 00:05:44;;;;;;;0.57;0.13;;;20.00;86.30;;;;;;5073433;28;20161;-73
2023/07/08 00:08:19;;;;;;;1.65;0.10;;;20.00;86.40;;;;;;5073452;28;20056;-73
2023/07/08 00:10:44;;;;;;;2.22;0.17;;;19.90;87.00;;;;;;5073445;28;20027;-74
2023/07/08 00:13:10;;;;;;;4.40;0.75;;;19.90;87.70;;;;;;5072090;28;20012;-73
2023/07/08 00:15:37;;;;;;;2.75;0.32;;;19.80;88.20;;;;;;5072162;28;20391;-73
2023/07/08 00:18:17;;;;;;;3.40;0.55;;;19.80;88.50;;;;;;5073388;28;20028;-73
2023/07/08 00:20:49;;;;;;;2.70;0.20;;;19.70;88.60;;;;;;5072110;28;20036;-74
2023/07/08 00:23:16;;;;;;;0.60;0.20;;;19.70;89.00;;;;;;5073072;28;20032;-74
2023/07/08 00:25:41;;;;;;;1.20;0.30;;;19.60;89.60;;;;;;5073681;28;20066;-73
2023/07/08 00:28:14;;;;;;;0.82;0.30;;;19.60;90.00;;;;;;5073311;28;20025;-74
2023/07/08 00:30:40;;;;;;;0.40;0.38;;;19.50;90.10;;;;;;5073214;28;20021;-74
2023/07/08 00:33:06;;;;;;;3.05;0.10;;;19.50;90.30;;;;;;5073145;28;20074;-73
2023/07/08 00:35:38;;;;;;;0.57;0.10;;;19.50;90.40;;;;;;5073171;28;20052;-73
2023/07/08 00:38:21;;;;;;;0.65;0.20;;;19.40;90.70;;;;;;5073225;28;20021;-73
2023/07/08 00:41:06;;;;;;;1.17;0.10;;;19.40;90.80;;;;;;5073167;28;20399;-73
2023/07/08 00:43:59;;;;;;;0.98;0.30;;;19.40;91.00;;;;;;5071799;28;20021;-74
2023/07/08 00:46:29;;;;;;;2.20;0.30;;;19.30;91.30;;;;;;5070884;28;20044;-74
2023/07/08 00:49:28;;;;;;;1.23;0.25;;;19.30;91.20;;;;;;5073565;28;20463;-73
2023/07/08 00:51:53;;;;;;;1.38;0.50;;;19.30;91.50;;;;;;5055716;28;20025;-74
2023/07/08 00:54:20;;;;;;;2.88;0.10;;;19.20;91.70;;;;;;5073202;28;20472;-74
2023/07/08 00:56:58;;;;;;;2.33;0.10;;;19.20;91.80;;;;;;5073119;28;20082;-73
2023/07/08 00:59:32;;;;;;;3.22;0.20;;;19.20;91.90;;;;;;5073141;28;20074;-74
2023/07/08 01:02:00;;;;;;;3.95;0.82;;;19.20;92.00;;;;;;5073758;28;20024;-73
2023/07/08 01:04:34;;;;;;;;;;;19.10;92.30;;;;;;5071906;28;20044;-73
2023/07/08 01:07:03;;;;;;;1.17;0.63;;;19.10;92.40;;;;;;5071772;28;19915;-73
2023/07/08 01:09:32;;;;;;;1.45;0.65;;;19.10;92.80;;;;;;5071655;28;20013;-73
2023/07/08 01:12:02;;;;;;;1.65;0.38;;;19.00;93.20;;;;;;5072863;28;20024;-73
2023/07/08 01:14:32;;;;;;;1.63;0.40;;;19.00;93.40;;;;;;5071635;28;20017;-73
2023/07/08 01:16:58;;;;;;;0.63;0.10;;;18.90;93.70;;;;;;5071660;28;20016;-73
2023/07/08 01:19:33;;;;;;;2.00;0.47;;;18.80;94.00;;;;;;5071517;28;20186;-73
2023/07/08 01:22:03;;;;;;;3.53;0.20;;;18.80;94.40;;;;;;5072956;28;20017;-73
2023/07/08 01:24:32;;;;;;;1.15;0.10;;;18.70;94.70;;;;;;5072671;28;20016;-73
2023/07/08 01:26:59;;;;;;;;;;;18.60;95.00;;;;;;5071830;28;20159;-74
2023/07/08 01:29:25;;;;;;;1.55;0.55;;;18.60;95.30;;;;;;5071679;28;19915;-73
2023/07/08 01:31:51;;;;;;;3.08;0.20;;;18.60;95.80;;;;;;5071275;28;20020;-73
2023/07/08 01:34:17;;;;;;;1.52;0.35;;;18.50;95.90;;;;;;5073038;28;20025;-73
2023/07/08 01:36:50;;;;;;;3.35;0.52;;;18.40;96.40;;;;;;5074886;28;20021;-73
2023/07/08 01:39:19;;;;;;;0.93;0.20;;;18.40;96.80;;;;;;5076474;28;20024;-75
2023/07/08 01:41:45;;;;;;;0.98;0.30;;;18.40;97.10;;;;;;5074968;28;20025;-73
2023/07/08 01:44:30;;;;;;;1.67;0.50;;;18.40;97.50;;;;;;5076070;28;20078;-74
2023/07/08 01:47:13;;;;;;;2.05;0.60;;;18.30;97.80;;;;;;5074848;28;20450;-73
2023/07/08 01:49:40;;;;;;;2.28;0.40;;;18.30;98.10;;;;;;5076101;28;20086;-74
2023/07/08 01:52:07;;;;;;;1.90;0.57;;;18.30;98.40;;;;;;5074596;28;20032;-73
2023/07/08 01:54:32;;;;;;;0.57;0.20;;;18.20;98.70;;;;;;5075918;28;20024;-74
2023/07/08 01:56:58;;;;;;;0.82;0.30;;;18.20;99.20;;;;;;5075872;28;20023;-73
2023/07/08 01:59:24;;;;;;;2.25;0.25;;;18.20;99.40;;;;;;5075915;28;20029;-73
2023/07/08 02:01:54;;;;;;;1.10;0.50;;;18.10;99.70;;;;;;5075896;28;20070;-73
2023/07/08 02:04:24;;;;;;;1.83;0.25;;;18.10;99.90;;;;;;5075482;28;20082;-73
2023/07/08 02:06:58;;;;;;;1.00;0.20;;;18.10;99.90;;;;;;5075962;28;20028;-73
2023/07/08 02:09:24;;;;;;;1.10;0.32;;;18.10;99.90;;;;;;5075516;28;20020;-73
2023/07/08 02:11:50;;;;;;;3.63;0.20;;;18.10;99.90;;;;;;5076245;28;20023;-73
2023/07/08 02:14:16;;;;;;;0.98;0.30;;;18.00;99.90;;;;;;5076079;28;20368;-73
2023/07/08 02:16:42;;;;;;;3.90;0.10;;;18.00;99.90;;;;;;5075535;28;20044;-73
2023/07/08 02:19:07;;;;;;;3.20;0.20;;;18.00;99.90;;;;;;5075493;28;20036;-73
2023/07/08 02:21:33;;;;;;;1.70;0.38;;;18.00;99.90;;;;;;5075552;28;20021;-73
2023/07/08 02:24:00;;;;;;;2.35;0.38;;;18.00;99.90;;;;;;5075520;28;20488;-73
2023/07/08 02:26:26;;;;;;;0.20;0.10;;;18.00;99.90;;;;;;5074008;28;20033;-73
2023/07/08 02:28:52;;;;;;;2.50;0.20;;;18.00;99.90;;;;;;5076052;28;20028;-74
2023/07/08 02:31:17;;;;;;;0.95;0.15;;;17.90;99.90;;;;;;5075426;28;20058;-73
2023/07/08 02:33:43;;;;;;;0.85;0.38;;;17.80;99.90;;;;;;5075259;28;20021;-73
2023/07/08 02:36:08;;;;;;;1.90;0.17;;;17.80;99.90;;;;;;5075320;28;20024;-73
2023/07/08 02:38:34;;;;;;;2.38;0.50;;;17.80;99.90;;;;;;5075327;28;20029;-73
2023/07/08 02:41:00;;;;;;;1.27;0.20;;;17.80;99.90;;;;;;5075788;28;20078;-73
2023/07/08 02:43:25;;;;;;;5.95;0.30;;;17.80;99.90;;;;;;5075079;28;20064;-73
2023/07/08 02:45:51;;;;;;;1.75;0.40;;;17.80;99.90;;;;;;5074990;28;20078;-73
2023/07/08 02:48:18;;;;;;;3.42;0.30;;;17.70;99.90;;;;;;5075224;28;20028;-73
2023/07/08 02:50:43;;;;;;;0.95;0.30;;;17.70;99.90;;;;;;5075156;28;20499;-73
2023/07/08 02:53:09;;;;;;;2.78;0.40;;;17.70;99.90;;;;;;5074971;28;20020;-73
2023/07/08 02:55:34;;;;;;;1.33;0.30;;;17.60;99.90;;;;;;5075017;28;20036;-73
2023/07/08 02:58:00;;;;;;;10.20;0.30;;;17.70;99.90;;;;;;5075448;28;20025;-73
2023/07/08 03:00:26;;;;;;;1.85;0.55;;;17.60;99.90;;;;;;5074873;28;20024;-73
2023/07/08 03:02:51;;;;;;;0.88;0.17;;;17.60;99.90;;;;;;5074612;28;20074;-73
2023/07/08 03:05:17;;;;;;;2.30;0.30;;;17.60;99.90;;;;;;5074979;28;20036;-73
2023/07/08 03:07:42;;;;;;;1.17;0.63;;;17.60;99.90;;;;;;5075000;28;20472;-73
2023/07/08 03:10:09;;;;;;;3.85;0.50;;;17.50;99.90;;;;;;5074566;28;20016;-73
2023/07/08 03:12:34;;;;;;;2.97;0.25;;;17.50;99.90;;;;;;5074472;28;20492;-73
2023/07/08 03:15:00;;;;;;;1.20;0.13;;;17.50;99.90;;;;;;5073232;28;20021;-73
2023/07/08 03:17:26;;;;;;;1.20;0.43;;;17.50;99.90;;;;;;5074432;28;20025;-73
2023/07/08 03:19:51;;;;;;;0.95;0.20;;;17.40;99.90;;;;;;5074944;28;20477;-73
2023/07/08 03:22:20;;;;;;;2.35;0.17;;;17.40;99.90;;;;;;5074454;28;20101;-73
2023/07/08 03:24:46;;;;;;;1.65;0.40;;;17.40;99.90;;;;;;5074150;28;20040;-73
2023/07/08 03:27:14;;;;;;;1.13;0.30;;;17.40;99.90;;;;;;5074945;28;20016;-73
2023/07/08 03:29:41;;;;;;;1.83;0.30;;;17.50;99.90;;;;;;5074324;28;20021;-73
2023/07/08 03:32:10;;;;;;;1.55;0.57;;;17.40;99.90;;;;;;5074326;28;20025;-73
2023/07/08 03:34:36;;;;;;;2.78;0.30;;;17.40;99.90;;;;;;5074035;28;20028;-73
2023/07/08 03:37:02;;;;;;;1.63;0.20;;;17.40;99.90;;;;;;5074134;28;20025;-73
2023/07/08 03:39:27;;;;;;;1.85;0.43;;;17.40;99.90;;;;;;5074113;28;20024;-73
2023/07/08 03:41:53;;;;;;;2.30;0.30;;;17.40;99.90;;;;;;5074047;28;20008;-73
2023/07/08 03:44:20;;;;;;;1.88;0.30;;;17.40;99.90;;;;;;5073840;28;20028;-73
2023/07/08 03:46:50;;;;;;;0.88;0.32;;;17.40;99.90;;;;;;5072521;28;20025;-73
2023/07/08 03:49:23;;;;;;;3.67;0.20;;;17.40;99.90;;;;;;5073848;28;20029;-73
2023/07/08 03:51:50;;;;;;;2.15;0.22;;;17.40;99.90;;;;;;5073746;28;20063;-73
2023/07/08 03:54:18;;;;;;;1.40;0.32;;;17.40;99.90;;;;;;5074320;28;20031;-73
2023/07/08 03:56:44;;;;;;;0.30;0.13;;;17.40;99.90;;;;;;5073823;28;20126;-73
2023/07/08 03:59:10;;;;;;;1.98;0.15;;;17.40;99.90;;;;;;5073917;28;20025;-74
2023/07/08 04:01:36;;;;;;;4.93;0.70;;;17.40;99.90;;;;;;5073651;28;20438;-73
2023/07/08 04:04:01;;;;;;;1.02;0.20;;;17.50;99.90;;;;;;5073452;28;20036;-73
2023/07/08 04:06:31;;;;;;;0.93;0.20;;;17.50;99.90;;;;;;5072214;28;20025;-73
2023/07/08 04:08:57;;;;;;;1.75;0.43;;;17.40;99.90;;;;;;5073564;28;20019;-73
2023/07/08 04:11:23;;;;;;;1.27;0.25;;;17.50;99.90;;;;;;5073641;28;20028;-73
2023/07/08 04:13:50;;;;;;;0.75;0.30;;;17.50;99.90;;;;;;5072237;28;20018;-73
2023/07/08 04:16:25;;;;;;;0.80;0.30;;;17.50;99.90;;;;;;5072267;28;20036;-73
2023/07/08 04:18:53;;;;;;;0.75;0.20;;;17.50;99.90;;;;;;5074127;28;20111;-73
2023/07/08 04:24:05;;;;;;;2.50;0.52;;;17.60;99.90;;;;;;5073526;28;20506;-73
2023/07/08 04:26:35;;;;;;;0.63;0.20;;;17.60;99.90;;;;;;5073347;28;20095;-73
2023/07/08 04:29:01;;;;;;;1.30;0.50;;;17.80;99.90;;;;;;5073639;28;20100;-73
2023/07/08 04:31:27;;;;;;;3.00;0.32;;;17.80;99.90;;;;;;5073268;28;20024;-73
2023/07/08 04:33:52;;;;;;;0.85;0.20;;;17.70;99.90;;;;;;5073190;28;20017;-73
2023/07/08 04:36:21;;;;;;;3.15;0.45;;;17.80;99.90;;;;;;5073246;28;20048;-74
2023/07/08 04:38:47;;;;;;;4.60;0.30;;;17.90;99.90;;;;;;5073254;28;20028;-74
2023/07/08 04:41:12;;;;;;;0.95;0.40;;;17.90;99.90;;;;;;5073088;28;20538;-74
2023/07/08 04:43:38;;;;;;;2.78;0.30;;;17.90;99.90;;;;;;5073134;28;20025;-74
2023/07/08 04:46:16;;;;;;;1.45;0.45;;;18.00;99.90;;;;;;5073073;28;20032;-74
2023/07/08 04:48:42;;;;;;;2.13;0.20;;;18.00;99.90;;;;;;5073231;28;20016;-74
2023/07/08 04:51:08;;;;;;;0.50;0.10;;;18.10;99.90;;;;;;5073026;28;20024;-74
2023/07/08 04:53:33;;;;;;;1.00;0.20;;;18.10;99.90;;;;;;5072916;28;20027;-74
2023/07/08 04:55:59;;;;;;;2.70;0.25;;;18.20;99.90;;;;;;5073518;28;20025;-74
2023/07/08 04:58:28;;;;;;;2.47;0.30;;;18.30;99.90;;;;;;5073465;28;20392;-74
2023/07/08 05:00:53;;;;;;;3.05;0.20;;;18.30;99.90;;;;;;5073006;28;20100;-74
2023/07/08 05:03:19;;;;;;;0.50;0.15;;;18.40;99.90;;;;;;5072718;28;20399;-73
2023/07/08 05:05:44;;;;;;;0.50;0.17;;;18.50;99.90;;;;;;5072872;28;20039;-75
2023/07/08 05:08:11;;;;;;;6.32;0.32;;;18.60;99.90;;;;;;5073014;28;20021;-74
2023/07/08 05:10:36;;;;;;;0.82;0.30;;;18.70;99.90;;;;;;5074884;28;20471;-74
2023/07/08 05:13:02;;;;;;;0.73;0.10;;;18.80;99.90;;;;;;5076997;28;20025;-74
2023/07/08 05:15:28;;;;;;;1.10;0.50;;;18.90;99.90;;;;;;5076929;28;20032;-74
2023/07/08 05:17:53;;;;;;;0.95;0.20;;;18.90;99.90;;;;;;5075407;28;20514;-74
2023/07/08 05:20:19;;;;;;;1.55;0.22;;;18.90;99.90;;;;;;5075423;28;20060;-74
2023/07/08 05:22:46;;;;;;;3.08;0.38;;;19.10;99.90;;;;;;5076328;28;20036;-77
2023/07/08 05:25:12;;;;;;;0.88;0.32;;;19.10;99.90;;;;;;5076538;28;20028;-77
2023/07/08 05:27:38;;;;;;;1.52;0.30;;;19.20;99.90;;;;;;5076711;28;20543;-77
2023/07/08 05:30:05;;;;;;;1.42;0.30;;;19.30;99.90;;;;;;5076466;28;20028;-77
2023/07/08 05:32:31;;;;;;;1.90;0.52;;;19.30;99.90;;;;;;5077055;28;20098;-77
2023/07/08 05:34:57;;;;;;;3.75;0.20;;;19.40;99.90;;;;;;5076424;28;20500;-77
2023/07/08 05:37:25;;;;;;;2.03;0.30;;;19.50;99.90;;;;;;5075152;28;20484;-77
2023/07/08 05:39:54;;;;;;;2.23;0.70;;;19.60;99.90;;;;;;5075093;28;20523;-77
2023/07/08 05:42:21;;;;;;;0.63;0.20;;;19.70;99.90;;;;;;5076515;28;20345;-77
2023/07/08 05:44:47;;;;;;;2.03;0.55;;;19.80;99.90;;;;;;5074881;28;20107;-77
2023/07/08 05:47:13;;;;;;;3.53;0.25;;;19.80;99.90;;;;;;5076118;28;20440;-76
2023/07/08 05:49:38;;;;;;;1.10;0.10;;;20.00;99.90;;;;;;5076260;28;20028;-77
2023/07/08 05:52:10;;;;;;;5.60;0.30;;;20.20;99.90;;;;;;5076175;28;20026;-77
2023/07/08 05:54:40;;;;;;;0.77;0.10;;;20.10;99.90;;;;;;5076094;28;20032;-76
2023/07/08 05:57:08;;;;;;;0.47;0.30;;;20.20;99.90;;;;;;5076095;28;20055;-76
2023/07/08 05:59:35;;;;;;;2.08;0.20;;;20.30;99.90;;;;;;5075790;28;20498;-77
2023/07/08 06:02:01;;;;;;;1.70;0.38;;;20.40;99.90;;;;;;5075938;28;20354;-77
2023/07/08 06:04:27;;;;;;;1.63;0.57;;;20.50;99.90;;;;;;5075621;28;20027;-76
2023/07/08 06:06:53;;;;;;;1.55;0.20;;;20.60;99.90;;;;;;5075799;28;20442;-77
2023/07/08 06:09:19;;;;;;;1.17;0.15;;;20.60;99.90;;;;;;5074665;28;20013;-76
2023/07/08 06:11:44;;;;;;;3.20;0.10;;;20.80;99.90;;;;;;5074510;28;20065;-77
2023/07/08 06:14:10;;;;;;;2.15;0.25;;;21.00;99.90;;;;;;5075677;28;20388;-76
2023/07/08 06:16:35;;;;;;;1.52;0.30;;;20.90;99.90;;;;;;5076001;28;20039;-76
2023/07/08 06:19:01;;;;;;;2.15;0.60;;;21.00;99.90;;;;;;5074440;28;20021;-76
2023/07/08 06:21:27;;;;;;;0.77;0.40;;;21.10;99.90;;;;;;5075238;28;20031;-77
2023/07/08 06:23:52;;;;;;;0.20;0.10;;;21.30;99.90;;;;;;5075349;28;20082;-76
2023/07/08 06:26:18;;;;;;;5.90;0.52;;;21.30;99.90;;;;;;5075347;28;20424;-76
2023/07/08 06:28:43;;;;;;;5.20;0.50;;;21.40;99.90;;;;;;5075454;28;20021;-77
2023/07/08 06:31:09;;;;;;;2.85;0.20;;;21.50;99.90;;;;;;5075989;28;20016;-76
2023/07/08 06:33:34;;;;;;;1.80;0.47;;;21.60;99.90;;;;;;5075334;28;20146;-76
2023/07/08 06:36:00;;;;;;;0.73;0.22;;;21.70;99.90;;;;;;5074021;28;20078;-76
2023/07/08 06:38:26;;;;;;;0.50;0.17;;;21.80;99.90;;;;;;5075742;28;20020;-76
2023/07/08 06:40:51;;;;;;;2.35;0.30;;;22.00;99.90;;;;;;5073745;28;20064;-76
2023/07/08 06:43:17;;;;;;;3.75;0.55;;;22.10;99.90;;;;;;5075068;28;20123;-76
2023/07/08 06:45:43;;;;;;;4.22;0.47;;;22.10;99.90;;;;;;5075018;28;20028;-76
2023/07/08 06:48:09;;;;;;;1.70;0.20;;;22.30;99.80;;;;;;5073793;28;20032;-76
2023/07/08 06:50:35;;;;;;;2.55;0.20;;;22.30;99.50;;;;;;5074511;28;20020;-76
2023/07/08 06:53:00;;;;;;;1.83;0.45;;;22.50;99.20;;;;;;5075118;28;20099;-76
2023/07/08 06:55:26;;;;;;;1.55;0.20;;;22.60;98.80;;;;;;5074881;28;20024;-76
2023/07/08 06:57:51;;;;;;;2.17;0.20;;;22.70;98.80;;;;;;5073677;28;20013;-76
2023/07/08 07:00:17;;;;;;;0.65;0.22;;;22.80;98.80;;;;;;5074795;28;20419;-77
2023/07/08 07:02:43;;;;;;;3.50;0.55;;;22.90;98.60;;;;;;5074598;28;20040;-74
2023/07/08 07:05:09;;;;;;;2.80;0.40;;;23.00;98.30;;;;;;5074599;28;20438;-75
2023/07/08 07:07:34;;;;;;;5.78;0.70;;;23.00;97.90;;;;;;5073420;28;20419;-74
2023/07/08 07:10:00;;;;;;;3.83;0.65;;;23.10;97.70;;;;;;5073295;28;20017;-75
2023/07/08 07:12:26;;;;;;;0.40;0.30;;;23.60;97.80;;;;;;5074533;28;20100;-74
2023/07/08 07:14:53;;;;;;;0.32;0.13;;;23.40;97.50;;;;;;5074529;28;20021;-74
2023/07/08 07:17:24;;;;;;;0.60;0.30;;;23.50;97.40;;;;;;5074738;28;20450;-74
2023/07/08 07:19:49;;;;;;;0.30;0.20;;;23.60;97.00;;;;;;5074564;28;20383;-74
2023/07/08 07:22:15;;;;;;;3.83;0.20;;;23.60;96.40;;;;;;5073284;28;20024;-74
2023/07/08 07:24:41;;;;;;;1.70;0.30;;;23.70;96.20;;;;;;5075321;28;20032;-74
2023/07/08 07:27:08;;;;;;;1.50;0.40;;;23.80;96.00;;;;;;5074271;28;20476;-74
2023/07/08 07:30:03;;;;;;;0.88;0.20;;;24.00;96.10;;;;;;5074205;28;20024;-74
2023/07/08 07:32:31;;;;;;;1.30;0.20;;;24.10;95.50;;;;;;5060812;28;20442;-74
2023/07/08 07:34:59;;;;;;;3.25;0.32;;;24.20;95.60;;;;;;5072797;28;20009;-74
2023/07/08 07:37:24;;;;;;;0.63;0.20;;;24.30;95.10;;;;;;5074110;28;20065;-74
2023/07/08 07:39:50;;;;;;;1.02;0.15;;;24.40;94.80;;;;;;5072855;28;20020;-74
2023/07/08 07:42:18;;;;;;;1.45;0.43;;;24.50;94.70;;;;;;5074018;28;20032;-74
2023/07/08 07:44:44;;;;;;;2.88;0.75;;;24.60;94.30;;;;;;5073883;28;20066;-74
2023/07/08 07:47:10;;;;;;;2.90;0.65;;;24.70;93.90;;;;;;5073845;28;20032;-74
2023/07/08 07:49:36;;;;;;;1.60;0.43;;;24.90;94.10;;;;;;5073781;28;20107;-74
2023/07/08 07:52:03;;;;;;;1.45;0.30;;;25.00;93.30;;;;;;5073765;28;20031;-74
2023/07/08 07:54:28;;;;;;;1.45;0.50;;;25.00;93.20;;;;;;5072332;28;20476;-74
2023/07/08 07:56:54;;;;;;;1.80;0.52;;;25.20;93.00;;;;;;5073724;28;20031;-73
2023/07/08 07:59:19;;;;;;;3.17;0.20;;;25.20;92.30;;;;;;5073698;28;20033;-73
2023/07/08 08:01:45;;;;;;;1.10;0.15;;;25.30;92.20;;;;;;5073602;28;20396;-73
2023/07/08 08:04:11;;;;;;;3.13;0.90;;;25.50;91.70;;;;;;5073534;28;20039;-73
2023/07/08 08:06:37;;;;;;;4.65;0.30;;;25.60;91.20;;;;;;5073472;28;20107;-73
2023/07/08 08:09:03;;;;;;;1.02;0.50;;;25.70;90.70;;;;;;5073502;28;20050;-73
2023/07/08 08:11:29;;;;;;;1.52;0.38;;;25.80;91.00;;;;;;5073465;28;20404;-73
2023/07/08 08:13:55;;;;;;;1.27;0.28;;;25.90;90.20;;;;;;5073315;28;20038;-73
2023/07/08 08:16:21;;;;;;;0.93;0.30;;;25.90;90.40;;;;;;5073447;28;20026;-74
2023/07/08 08:18:46;;;;;;;3.85;0.55;;;26.10;90.80;;;;;;5073423;28;20029;-74
2023/07/08 08:21:13;;;;;;;3.47;0.88;;;26.20;89.40;;;;;;5073491;28;20037;-74
2023/07/08 08:23:38;;;;;;;1.50;0.60;;;26.30;88.70;;;;;;5072095;28;20017;-74
2023/07/08 08:26:04;;;;;;;2.40;0.50;;;26.50;88.10;;;;;;5073402;28;20039;-74
2023/07/08 08:28:29;;;;;;;1.65;0.32;;;26.70;86.30;;;;;;5073395;28;20048;-74
2023/07/08 08:30:55;;;;;;;2.40;0.40;;;26.70;85.20;;;;;;5073161;28;20029;-74
2023/07/08 08:33:21;;;;;;;1.48;0.50;;;26.80;85.40;;;;;;5073122;28;20124;-73
2023/07/08 08:35:46;;;;;;;3.05;0.90;;;26.80;85.10;;;;;;5073110;28;20031;-73
2023/07/08 08:38:12;;;;;;;1.33;0.20;;;26.90;84.20;;;;;;5072072;28;20124;-74
2023/07/08 08:40:41;;;;;;;1.35;0.60;;;27.00;83.70;;;;;;5073696;28;20028;-73
2023/07/08 08:43:10;;;;;;;;;;;27.10;82.30;;;;;;5073550;28;20420;-74
2023/07/08 08:46:16;;;;;;;5.47;0.70;;;27.20;82.80;;;;;;5073000;28;19942;-73
2023/07/08 08:48:50;;;;;;;1.65;0.50;;;27.40;82.80;;;;;;5043103;28;20503;-74
2023/07/08 08:51:16;;;;;;;3.40;0.35;;;27.50;81.40;;;;;;5071808;28;20115;-74
2023/07/08 08:53:43;;;;;;;3.55;0.50;;;27.50;80.50;;;;;;5072911;28;20476;-76
2023/07/08 08:56:20;;;;;;;3.47;0.70;;;27.60;81.30;;;;;;5072936;28;20025;-76
2023/07/08 08:58:56;;;;;;;2.08;0.52;;;27.60;81.20;;;;;;5073041;28;20028;-77
2023/07/08 09:01:22;;;;;;;2.53;0.63;;;27.80;81.60;;;;;;5072898;28;20017;-77
2023/07/08 09:04:13;;;;;;;0.77;0.57;;;27.90;80.80;;;;;;5071372;28;20044;-76
2023/07/08 09:06:40;;;;;;;2.25;0.63;;;28.00;80.40;;;;;;5060890;28;20033;-77
2023/07/08 09:09:19;;;;;;;2.47;0.73;;;28.10;80.30;;;;;;5073590;28;20024;-77
2023/07/08 09:11:56;;;;;;;3.92;0.50;;;28.10;78.50;;;;;;5072997;28;20027;-77
2023/07/08 09:14:22;;;;;;;1.35;0.60;;;28.10;78.10;;;;;;5072964;28;20016;-77
2023/07/08 09:17:19;;;;;;;2.00;0.45;;;28.20;80.30;;;;;;5073080;28;20035;-77
2023/07/08 09:20:06;;;;;;;1.23;0.55;;;28.30;78.90;;;;;;5071422;28;20408;-77
2023/07/08 09:22:39;;;;;;;0.65;0.20;;;28.30;78.80;;;;;;5071947;28;20073;-76
2023/07/08 09:25:29;;;;;;;3.95;1.15;;;28.50;82.20;;;;;;5072714;28;20047;-77
2023/07/08 09:27:54;;;;;;;3.22;0.47;;;28.60;77.90;;;;;;5072920;28;20032;-77
2023/07/08 09:30:22;;;;;;;2.15;0.57;;;28.70;76.80;;;;;;5072848;28;20025;-76
2023/07/08 09:32:49;;;;;;;5.88;0.60;;;28.80;76.80;;;;;;5072904;28;20024;-75
2023/07/08 09:35:35;;;;;;;2.88;0.70;;;28.90;75.80;;;;;;5071345;28;20472;-75
2023/07/08 09:38:07;;;;;;;2.47;0.90;;;29.00;77.10;;;;;;5072860;28;20499;-75
2023/07/08 09:40:33;;;;;;;2.85;0.75;;;29.10;74.30;;;;;;5072690;28;20024;-74
2023/07/08 09:43:02;;;;;;;1.75;0.70;;;29.20;74.20;;;;;;5072554;28;20021;-75
2023/07/08 09:45:39;;;;;;;1.27;0.75;;;28.40;74.70;;;;;;5071200;28;20025;-75
2023/07/08 09:48:16;;;;;;;1.80;0.60;;;29.50;74.40;;;;;;5073053;28;20162;-75
2023/07/08 09:50:44;;;;;;;3.28;0.52;;;29.60;73.10;;;;;;5071473;28;20108;-75
2023/07/08 09:53:14;;;;;;;1.80;0.77;;;29.70;71.80;;;;;;5072430;28;20028;-75
2023/07/08 09:55:40;;;;;;;3.05;0.80;;;29.80;74.60;;;;;;5071655;28;20027;-75
2023/07/08 09:58:14;;;;;;;1.63;0.52;;;30.00;74.20;;;;;;5076132;28;20029;-75
2023/07/08 10:00:41;;;;;;;2.05;0.80;;;30.10;72.60;;;;;;5075032;28;20027;-75
2023/07/08 10:03:21;;;;;;;1.57;0.50;;;30.20;72.70;;;;;;5075999;28;20761;-75
2023/07/08 10:05:49;;;;;;;1.25;0.55;;;30.40;72.40;;;;;;5074899;28;20413;-75
2023/07/08 10:08:21;;;;;;;1.65;0.60;;;30.50;72.50;;;;;;5074651;28;20028;-75
2023/07/08 10:10:57;;;;;;;2.42;0.82;;;30.40;74.90;;;;;;5075908;28;20028;-74
2023/07/08 10:13:36;;;;;;;1.33;0.38;;;30.50;74.10;;;;;;5076065;28;20036;-76
2023/07/08 10:16:31;;;;;;;1.77;0.70;;;30.60;72.80;;;;;;5075781;28;20035;-75
2023/07/08 10:19:01;;;;;;;3.55;0.57;;;30.60;71.40;;;;;;5076094;28;20028;-75
2023/07/08 10:21:38;;;;;;;0.95;0.50;;;30.60;71.10;;;;;;5074167;28;20032;-75
2023/07/08 10:24:06;;;;;;;1.02;0.38;;;30.80;71.80;;;;;;5075936;28;20506;-75
2023/07/08 10:26:38;;;;;;;4.47;1.15;;;30.80;69.80;;;;;;5076027;28;20127;-75
2023/07/08 10:29:17;;;;;;;3.00;1.33;;;30.70;70.00;;;;;;5074193;28;20032;-75
2023/07/08 10:32:24;;;;;;;1.73;0.82;;;30.80;69.90;;;;;;5075482;28;20052;-75
2023/07/08 10:35:02;;;;;;;2.87;0.70;;;31.10;69.80;;;;;;5073449;28;20450;-74
2023/07/08 10:37:51;;;;;;;1.77;0.75;;;31.20;68.80;;;;;;5075345;28;20103;-75
2023/07/08 10:40:43;;;;;;;5.72;1.17;;;31.40;70.20;;;;;;5075882;28;20048;-75
2023/07/08 10:43:29;;;;;;;3.30;1.00;;;31.50;68.40;;;;;;5074063;28;20027;-75
2023/07/08 10:46:24;;;;;;;2.65;0.77;;;31.70;68.20;;;;;;5075161;28;20046;-73
2023/07/08 10:49:13;;;;;;;4.40;1.33;;;31.90;67.00;;;;;;5073815;28;20388;-74
2023/07/08 10:51:41;;;;;;;2.67;1.10;;;32.00;66.70;;;;;;5075672;28;20024;-73
2023/07/08 10:54:27;;;;;;;4.72;1.25;;;32.20;66.10;;;;;;5075000;28;20028;-73
2023/07/08 10:57:20;;;;;;;3.88;1.25;;;32.30;65.40;;;;;;5075094;28;20059;-73
2023/07/08 11:00:07;;;;;;;1.70;1.17;;;32.50;65.40;;;;;;5074992;28;20028;-75
2023/07/08 11:03:07;;;;;;;1.85;0.95;;;32.70;63.80;;;;;;5073639;28;20028;-73
2023/07/08 11:05:46;;;;;;;1.80;1.05;;;32.90;64.30;;;;;;5074882;28;20070;-73
2023/07/08 11:08:27;;;;;;;2.20;1.20;;;32.90;63.70;;;;;;5072449;28;20115;-73
2023/07/08 11:11:00;;;;;;;3.38;1.13;;;33.00;64.10;;;;;;5073543;28;20012;-73
2023/07/08 11:13:29;;;;;;;3.92;1.00;;;33.10;63.60;;;;;;5075025;28;20016;-73
2023/07/08 11:16:09;;;;;;;5.35;1.15;;;33.20;64.50;;;;;;5074610;28;20021;-73
2023/07/08 11:18:50;;;;;;;3.33;1.10;;;33.40;65.20;;;;;;5074738;28;20021;-73
2023/07/08 11:21:31;;;;;;;1.52;0.98;;;33.50;62.80;;;;;;5075056;28;20023;-73
2023/07/08 11:24:06;;;;;;;5.43;1.23;;;33.80;64.30;;;;;;5074467;28;20483;-73
2023/07/08 11:26:44;;;;;;;2.65;1.10;;;34.00;62.70;;;;;;5074313;28;20024;-73
2023/07/08 11:29:20;;;;;;;3.75;0.82;;;34.00;62.90;;;;;;5074894;28;20052;-73
2023/07/08 11:31:47;;;;;;;2.03;0.80;;;34.10;61.20;;;;;;5073025;28;20028;-73
2023/07/08 11:34:15;;;;;;;3.88;1.23;;;34.20;61.00;;;;;;5074145;28;20435;-74
2023/07/08 11:36:43;;;;;;;4.35;1.45;;;34.20;62.30;;;;;;5074196;28;20430;-74
2023/07/08 11:39:44;;;;;;;2.50;1.00;;;34.20;59.50;;;;;;5074353;28;20016;-73
2023/07/08 11:42:18;;;;;;;3.58;1.45;;;34.20;62.20;;;;;;5074043;28;20020;-73
2023/07/08 11:44:56;;;;;;;5.10;1.35;;;34.30;59.00;;;;;;5072867;28;20029;-73
2023/07/08 11:47:30;;;;;;;3.42;1.00;;;34.50;60.50;;;;;;5074621;28;20396;-73
2023/07/08 11:49:56;;;;;;;2.78;1.10;;;34.80;57.50;;;;;;5074144;28;20024;-73
2023/07/08 11:52:23;;;;;;;3.65;1.08;;;35.00;58.00;;;;;;5074174;28;20031;-73
2023/07/08 11:55:13;;;;;;;4.50;1.15;;;35.10;56.30;;;;;;5073638;28;20048;-73
2023/07/08 11:57:42;;;;;;;4.15;1.42;;;35.20;58.60;;;;;;5073827;28;20052;-73
2023/07/08 12:00:17;;;;;;;4.95;1.35;;;35.40;55.80;;;;;;5073651;28;20032;-73
2023/07/08 12:02:55;;;;;;;1.38;0.90;;;35.60;52.70;;;;;;5073590;28;20441;-73
2023/07/08 12:05:30;;;;;;;3.28;1.40;;;35.50;52.00;;;;;;5074301;28;20034;-76
2023/07/08 12:08:00;;;;;;;2.33;0.95;;;35.40;55.20;;;;;;5072295;28;20086;-76
2023/07/08 12:10:39;;;;;;;2.95;1.42;;;35.40;53.60;;;;;;5073670;28;20016;-76
2023/07/08 12:13:13;;;;;;;2.33;1.15;;;35.60;54.70;;;;;;5072146;28;20021;-76
2023/07/08 12:15:39;;;;;;;4.00;1.27;;;35.80;50.90;;;;;;5073568;28;20060;-76
2023/07/08 12:18:30;;;;;;;3.65;1.30;;;35.90;50.10;;;;;;5073483;28;20510;-76
2023/07/08 12:20:58;;;;;;;2.58;1.33;;;36.00;51.00;;;;;;5072900;28;20094;-76
2023/07/08 12:23:26;;;;;;;3.55;1.55;;;36.20;50.00;;;;;;5073232;28;20387;-76
2023/07/08 12:25:54;;;;;;;2.13;1.08;;;36.40;50.50;;;;;;5073231;28;20042;-75
2023/07/08 12:28:20;;;;;;;2.78;1.40;;;36.50;49.20;;;;;;5073324;28;20388;-75
2023/07/08 12:30:47;;;;;;;1.95;0.88;;;36.30;48.00;;;;;;5071971;28;20397;-76
2023/07/08 12:33:34;;;;;;;3.40;1.05;;;36.20;48.10;;;;;;5073137;28;20017;-76
2023/07/08 12:36:01;;;;;;;4.53;1.33;;;36.30;49.40;;;;;;5071523;28;20496;-76
2023/07/08 12:38:37;;;;;;;3.05;1.10;;;36.50;50.80;;;;;;5073178;28;20020;-76
2023/07/08 12:41:10;;;;;;;4.28;1.15;;;36.70;49.20;;;;;;5073116;28;20028;-76
2023/07/08 12:43:36;;;;;;;5.28;1.17;;;36.80;47.40;;;;;;5071591;28;20480;-76
2023/07/08 12:46:03;;;;;;;1.98;0.80;;;36.90;48.40;;;;;;5072984;28;20028;-76
2023/07/08 12:48:36;;;;;;;3.67;1.05;;;36.80;46.20;;;;;;5071736;28;20380;-76
2023/07/08 12:51:03;;;;;;;2.50;1.00;;;36.90;45.70;;;;;;5073018;28;20025;-76
2023/07/08 12:53:29;;;;;;;;;;;37.10;47.10;;;;;;5072050;28;20487;-76
2023/07/08 12:55:57;;;;;;;2.15;1.05;;;37.30;46.10;;;;;;5071785;28;19911;-76
2023/07/08 12:58:27;;;;;;;5.78;0.82;;;37.60;46.20;;;;;;5073015;28;20029;-76
2023/07/08 13:00:53;;;;;;;3.30;0.70;;;37.90;44.10;;;;;;5073099;28;20032;-76
2023/07/08 13:03:22;;;;;;;2.17;1.10;;;38.00;43.10;;;;;;5072537;28;20040;-76
2023/07/08 13:05:50;;;;;;;4.70;0.90;;;38.00;45.30;;;;;;5072813;28;20028;-76